Flugplatz Treuchtlingen-Bubenheim (EDNT)

Hier findest Du alle Informationen zum Flugplatz Treuchtlingen-Bubenheim (EDNT).

Informationen für Piloten zum Flugplatz Treuchtlingen-Bubenheim

Hier findest Du alle relevanten Informationen, die Du als Pilot benötigst, um Treuchtlingen-Bubenheim anzufliegen.

Flugplatz: Treuchtlingen-Bubenheim ICAO-Code: EDNT
Frequenz Turm: 122,600 Mhz GAFOR Gebiet: 55
Frequenz Ground: 122,600 Mhz Mogas: nein
Platzrunde: NE 2300 ft Landegebühr: -
Platzhöhe: 1.345 ft Sunrise: 03:19 Uhr UTC
Pisten: 15/33 - 495 m x 30 m, GRAS Sunset: 19:07 Uhr UTC

Mitglieder, die in Treuchtlingen-Bubenheim fliegen

Flugwetter am Flugplatz Treuchtlingen-Bubenheim

Die METAR Information stammen aus EDDN (57.65 km entfernt).

METAR Code:
2024/05/22 17:20
EDDN 221720Z AUTO 29008KT 230V310 9999 FEW038 18/10 Q1012 NOSIG

Flugschulen am Flugplatz Treuchtlingen-Bubenheim

Am Flugplatz Treuchtlingen-Bubenheim gibt es leider keine Flugschule.

Benachbarte Flugplätze und Flugschulen

Es gibt 22 weitere Flugplätze in einem Umkreis von 50 km um den Flugplatz Treuchtlingen-Bubenheim.

Jetzt anmelden

Passwort vergessen

Umfrage Archiv

Wie häufig haltet Ihr die Halbkreisflugregel ein?

Eher häufig!
35.7 %
Immer!
31 %
Hin und wieder!
16.5 %
Nie!
9.4 %
Eher selten!
7.5 %
Stimmen: 255 | Diskussion
Anzeige: Roland Aircraft
Statistik Alle Mitglieder

Aktuell sind 19 Besucher online, davon 3 Mitglieder und 16 Gäste.


Mitglieder online:
B.intheair  raller  marcom 

Anzeige: EasyVFR